createdAt,value
2018-11-02T00:01:21.020Z,99105.62
2018-11-02T00:03:48.678Z,99115.61
2018-11-02T00:06:16.371Z,99117.62
2018-11-02T00:08:43.849Z,99119.47
2018-11-02T00:11:11.415Z,99122.06
2018-11-02T00:13:38.984Z,99125.27
2018-11-02T00:16:06.566Z,99129.27
2018-11-02T00:18:34.152Z,99120.42
2018-11-02T00:21:01.754Z,99124.34
2018-11-02T00:23:29.317Z,99139.17
2018-11-02T00:25:56.897Z,99134.66
2018-11-02T00:28:24.478Z,99137.84
2018-11-02T00:30:52.082Z,99147.16
2018-11-02T00:33:19.804Z,99149.77
2018-11-02T00:35:47.503Z,99153.81
2018-11-02T00:38:15.081Z,99160.33
2018-11-02T00:40:42.859Z,99159.35
2018-11-02T00:43:10.442Z,99157.57
2018-11-02T00:45:39.546Z,99151.42
2018-11-02T00:48:07.147Z,99149.71
2018-11-02T00:50:34.856Z,99147.22
2018-11-02T00:53:02.467Z,99140.58
2018-11-02T00:55:30.090Z,99131.09
2018-11-02T00:57:57.722Z,99132.06
2018-11-02T01:00:25.270Z,99139.13
2018-11-02T01:02:52.845Z,99140.07
2018-11-02T01:05:20.372Z,99133.92
2018-11-02T01:07:48.021Z,99149.38
2018-11-02T01:10:15.539Z,99147.88
2018-11-02T01:12:43.247Z,99154.31
2018-11-02T01:15:10.763Z,99161.53
2018-11-02T01:17:38.434Z,99165.56
2018-11-02T01:20:06.130Z,99168.97
2018-11-02T01:22:34.066Z,99189.10
2018-11-02T01:25:01.677Z,99182.38
2018-11-02T01:27:29.234Z,99184.38
2018-11-02T01:29:56.894Z,99190.70
2018-11-02T01:32:24.479Z,99185.90
2018-11-02T01:34:52.203Z,99196.72
2018-11-02T01:37:19.800Z,99199.70
2018-11-02T01:39:47.416Z,99208.52
2018-11-02T01:42:14.978Z,99212.75
2018-11-02T01:44:42.670Z,99208.76
2018-11-02T01:47:10.206Z,99208.67
2018-11-02T01:49:37.832Z,99206.55
2018-11-02T01:52:05.442Z,99209.48
2018-11-02T01:54:32.969Z,99204.39
2018-11-02T01:57:00.506Z,99205.40
2018-11-02T01:59:28.086Z,99219.98
2018-11-02T02:01:55.668Z,99222.37
2018-11-02T02:04:23.254Z,99224.41
2018-11-02T02:06:50.795Z,99228.03
2018-11-02T02:09:18.460Z,99228.94
2018-11-02T02:11:46.051Z,99233.88
2018-11-02T02:14:13.603Z,99241.44
2018-11-02T02:16:41.163Z,99232.25
2018-11-02T02:19:08.731Z,99235.11
2018-11-02T02:21:36.312Z,99252.52
2018-11-02T02:24:03.892Z,99256.69
2018-11-02T02:26:31.412Z,99253.44
2018-11-02T02:28:59.059Z,99243.89
2018-11-02T02:31:26.593Z,99251.41
2018-11-02T02:33:54.165Z,99266.42
2018-11-02T02:36:21.760Z,99257.20
2018-11-02T02:38:49.316Z,99271.42
2018-11-02T02:41:16.945Z,99257.52
2018-11-02T02:43:44.462Z,99261.86
2018-11-02T02:46:12.023Z,99261.63
2018-11-02T02:48:39.574Z,99264.13
2018-11-02T02:51:07.149Z,99277.27
2018-11-02T02:53:34.848Z,99279.86
2018-11-02T02:56:02.406Z,99283.50
2018-11-02T02:58:30.025Z,99293.44
2018-11-02T03:00:58.763Z,99302.84
2018-11-02T03:03:26.289Z,99309.06
2018-11-02T03:05:53.818Z,99308.28
2018-11-02T03:08:21.410Z,99308.84
2018-11-02T03:10:49.102Z,99311.36
2018-11-02T03:13:16.532Z,99315.39
2018-11-02T03:15:44.125Z,99314.41
2018-11-02T03:18:11.896Z,99321.70
2018-11-02T03:20:39.422Z,99325.67
2018-11-02T03:23:06.997Z,99322.67
2018-11-02T03:25:34.517Z,99331.20
2018-11-02T03:28:02.093Z,99332.16
2018-11-02T03:30:29.654Z,99333.73
2018-11-02T03:32:57.213Z,99327.14
2018-11-02T03:35:24.775Z,99329.87
2018-11-02T03:37:52.307Z,99326.74
2018-11-02T03:40:19.908Z,99339.16
2018-11-02T03:42:47.451Z,99340.68
2018-11-02T03:45:15.067Z,99345.56
2018-11-02T03:47:42.596Z,99376.06
2018-11-02T03:50:10.823Z,99368.63
2018-11-02T03:52:38.388Z,99373.80
2018-11-02T03:55:05.912Z,99375.98
2018-11-02T03:57:33.504Z,99381.83
2018-11-02T04:00:01.115Z,99391.03
2018-11-02T04:02:28.647Z,99411.49
2018-11-02T04:04:56.264Z,99416.34
2018-11-02T04:07:23.826Z,99411.77
2018-11-02T04:09:51.378Z,99412.20
2018-11-02T04:12:19.014Z,99421.05
2018-11-02T04:14:46.584Z,99421.59
2018-11-02T04:17:14.168Z,99425.30
2018-11-02T04:19:41.721Z,99433.27
2018-11-02T04:22:09.291Z,99439.27
2018-11-02T04:24:36.878Z,99435.92
2018-11-02T04:27:04.401Z,99439.41
2018-11-02T04:29:31.996Z,99442.09
2018-11-02T04:31:59.600Z,99440.73
2018-11-02T04:34:27.186Z,99460.69
2018-11-02T04:36:54.878Z,99461.05
2018-11-02T04:39:22.457Z,99464.28
2018-11-02T04:41:50.113Z,99463.42
2018-11-02T04:44:17.727Z,99472.14
2018-11-02T04:46:45.258Z,99481.03
2018-11-02T04:49:12.830Z,99484.70
2018-11-02T04:51:40.426Z,99483.13
2018-11-02T04:54:08.004Z,99490.87
2018-11-02T04:56:35.547Z,99502.77
2018-11-02T04:59:03.135Z,99508.13
2018-11-02T05:01:30.690Z,99507.78
2018-11-02T05:03:58.290Z,99516.26
2018-11-02T05:06:25.930Z,99517.08
2018-11-02T05:08:53.498Z,99532.14
2018-11-02T05:11:21.077Z,99535.66
2018-11-02T05:13:48.611Z,99542.45
2018-11-02T05:16:16.218Z,99541.97
2018-11-02T05:18:44.306Z,99546.53
2018-11-02T05:21:11.917Z,99555.36
2018-11-02T05:23:39.471Z,99563.33
2018-11-02T05:26:07.073Z,99565.14
2018-11-02T05:28:34.632Z,99571.36
2018-11-02T05:31:02.408Z,99587.05
2018-11-02T05:33:29.986Z,99589.98
2018-11-02T05:35:57.546Z,99595.04
2018-11-02T05:38:25.123Z,99598.73
2018-11-02T05:40:52.732Z,99607.88
2018-11-02T05:43:20.287Z,99619.27
2018-11-02T05:45:48.055Z,99623.16
2018-11-02T05:48:15.602Z,99624.52
2018-11-02T05:50:43.327Z,99634.80
2018-11-02T05:53:10.868Z,99634.44
2018-11-02T05:55:38.860Z,99641.59
2018-11-02T05:58:06.387Z,99641.83
2018-11-02T06:00:34.053Z,99649.30
2018-11-02T06:03:01.589Z,99654.44
2018-11-02T06:05:29.117Z,99663.86
2018-11-02T06:07:56.716Z,99670.06
2018-11-02T06:10:24.234Z,99671.02
2018-11-02T06:12:51.964Z,99675.97
2018-11-02T06:15:19.526Z,99672.52
2018-11-02T06:17:47.097Z,99680.53
2018-11-02T06:20:14.632Z,99686.48
2018-11-02T06:22:42.241Z,99695.00
2018-11-02T06:25:09.788Z,99700.38
2018-11-02T06:27:37.352Z,99709.00
2018-11-02T06:30:04.939Z,99707.25
2018-11-02T06:32:32.558Z,99714.70
2018-11-02T06:35:00.091Z,99722.71
2018-11-02T06:37:27.694Z,99730.45
2018-11-02T06:39:55.282Z,99739.84
2018-11-02T06:42:22.822Z,99744.88
2018-11-02T06:44:50.442Z,99760.60
2018-11-02T06:47:17.963Z,99757.08
2018-11-02T06:49:45.538Z,99757.94
2018-11-02T06:52:13.058Z,99761.01
2018-11-02T06:54:40.626Z,99777.07
2018-11-02T06:57:08.161Z,99783.66
2018-11-02T06:59:35.955Z,99785.62
2018-11-02T07:02:03.296Z,99784.93
2018-11-02T07:04:30.903Z,99796.05
2018-11-02T07:06:58.533Z,99796.09
2018-11-02T07:09:26.130Z,99798.77
2018-11-02T07:11:53.736Z,99802.89
2018-11-02T07:14:21.270Z,99804.08
2018-11-02T07:16:48.988Z,99816.34
2018-11-02T07:19:16.752Z,99813.73
2018-11-02T07:21:44.459Z,99824.23
2018-11-02T07:24:12.285Z,99827.13
2018-11-02T07:26:40.016Z,99830.00
2018-11-02T07:29:07.762Z,99828.84
2018-11-02T07:31:35.359Z,99832.87
2018-11-02T07:34:02.902Z,99842.09
2018-11-02T07:36:30.498Z,99841.22
2018-11-02T07:38:58.048Z,99851.47
2018-11-02T07:41:25.617Z,99845.86
2018-11-02T07:43:53.199Z,99846.09
2018-11-02T07:46:20.726Z,99847.14
2018-11-02T07:48:48.301Z,99849.55
2018-11-02T07:51:15.878Z,99851.02
2018-11-02T07:53:43.435Z,99854.54
2018-11-02T07:56:11.060Z,99859.50
2018-11-02T07:58:38.585Z,99864.46
2018-11-02T08:01:06.197Z,99871.52
2018-11-02T08:03:33.799Z,99875.77
2018-11-02T08:06:01.370Z,99883.02
2018-11-02T08:08:28.949Z,99884.99
2018-11-02T08:10:56.459Z,99884.61
2018-11-02T08:13:23.981Z,99896.90
2018-11-02T08:15:51.557Z,99890.53
2018-11-02T08:18:19.092Z,99893.59
2018-11-02T08:20:47.738Z,99890.77
2018-11-02T08:23:15.327Z,99891.86
2018-11-02T08:25:42.987Z,99889.88
2018-11-02T08:28:10.566Z,99899.56
2018-11-02T08:30:38.258Z,99907.92
2018-11-02T08:33:05.816Z,99906.52
2018-11-02T08:35:33.486Z,99903.13
2018-11-02T08:38:01.065Z,99896.58
2018-11-02T08:40:28.821Z,99902.73
2018-11-02T08:42:56.425Z,99902.30
2018-11-02T08:45:26.220Z,99907.49
2018-11-02T08:47:53.785Z,99905.50
2018-11-02T08:50:21.419Z,99903.84
2018-11-02T08:52:49.133Z,99903.63
2018-11-02T08:55:16.723Z,99897.39
2018-11-02T08:57:44.379Z,99908.66
2018-11-02T09:00:11.910Z,99917.36
2018-11-02T09:02:39.497Z,99923.09
2018-11-02T09:05:07.143Z,99928.06
2018-11-02T09:07:34.686Z,99932.80
2018-11-02T09:10:02.301Z,99934.31
2018-11-02T09:12:29.916Z,99945.99
2018-11-02T09:14:57.491Z,99936.06
2018-11-02T09:17:25.347Z,99944.47
2018-11-02T09:19:52.873Z,99953.30
2018-11-02T09:22:20.432Z,99951.38
2018-11-02T09:24:48.095Z,99947.73
2018-11-02T09:27:15.713Z,99963.41
2018-11-02T09:29:43.235Z,99966.59
2018-11-02T09:32:10.880Z,99966.20
2018-11-02T09:34:38.405Z,99976.09
2018-11-02T09:37:06.101Z,99988.24
2018-11-02T09:39:33.742Z,99990.17
2018-11-02T09:42:01.327Z,99997.12
2018-11-02T09:44:29.281Z,100000.11
2018-11-02T09:46:56.883Z,100003.11
2018-11-02T09:49:24.492Z,100001.16
2018-11-02T09:51:52.073Z,100010.55
2018-11-02T09:54:19.677Z,100014.22
2018-11-02T09:56:47.287Z,100015.67
2018-11-02T09:59:14.876Z,100020.23
2018-11-02T10:01:42.522Z,100024.53
2018-11-02T10:04:10.097Z,100019.64
2018-11-02T10:06:37.735Z,100022.39
2018-11-02T10:09:05.447Z,100025.59
2018-11-02T10:11:34.240Z,100029.48
2018-11-02T10:14:01.877Z,100037.48
2018-11-02T10:16:29.665Z,100037.29
2018-11-02T10:18:57.332Z,100044.78
2018-11-02T10:21:24.948Z,100050.13
2018-11-02T10:23:52.609Z,100047.52
2018-11-02T10:26:21.570Z,100042.59
2018-11-02T10:28:49.357Z,100051.73
2018-11-02T10:31:16.918Z,100051.19
2018-11-02T10:33:44.515Z,100048.92
2018-11-02T10:36:12.119Z,100050.86
2018-11-02T10:38:39.679Z,100058.13
2018-11-02T10:41:07.285Z,100062.84
2018-11-02T10:43:35.067Z,100069.59
2018-11-02T10:46:02.649Z,100075.52
2018-11-02T10:48:30.300Z,100070.81
2018-11-02T10:50:57.850Z,100081.30
2018-11-02T10:53:25.442Z,100088.23
2018-11-02T10:55:53.060Z,100087.48
2018-11-02T10:58:20.626Z,100079.19
2018-11-02T11:00:48.377Z,100083.96
2018-11-02T11:03:16.119Z,100087.41
2018-11-02T11:05:43.682Z,100084.95
2018-11-02T11:08:11.267Z,100087.60
2018-11-02T11:10:39.084Z,100089.74
2018-11-02T11:13:07.338Z,100087.00
2018-11-02T11:15:34.569Z,100088.09
2018-11-02T11:18:02.109Z,100091.24
2018-11-02T11:20:29.896Z,100096.31
2018-11-02T11:22:57.504Z,100106.45
2018-11-02T11:25:25.117Z,100094.83
2018-11-02T11:27:52.784Z,100102.42
2018-11-02T11:30:20.373Z,100103.02
2018-11-02T11:32:48.092Z,100104.89
2018-11-02T11:35:15.718Z,100097.27
2018-11-02T11:37:43.531Z,100109.14
2018-11-02T11:40:11.137Z,100107.12
2018-11-02T11:42:38.792Z,100105.56
2018-11-02T11:45:06.474Z,100099.08
2018-11-02T11:47:34.075Z,100106.64
2018-11-02T11:50:01.602Z,100105.79
2018-11-02T11:52:29.278Z,100104.47
2018-11-02T11:54:56.889Z,100108.75
2018-11-02T11:57:24.477Z,100097.03
2018-11-02T11:59:52.193Z,100109.64
2018-11-02T12:02:19.849Z,100114.52
2018-11-02T12:04:47.382Z,100116.13
2018-11-02T12:07:15.000Z,100117.53
2018-11-02T12:09:42.632Z,100118.04
2018-11-02T12:12:10.225Z,100122.80
2018-11-02T12:14:37.874Z,100120.35
2018-11-02T12:17:05.515Z,100133.67
2018-11-02T12:19:33.047Z,100130.77
2018-11-02T12:22:00.719Z,100127.45
2018-11-02T12:24:28.254Z,100131.48
2018-11-02T12:26:56.189Z,100130.64
2018-11-02T12:29:23.832Z,100136.42
2018-11-02T12:31:52.567Z,100134.16
2018-11-02T12:34:20.118Z,100143.48
2018-11-02T12:36:47.766Z,100132.90
2018-11-02T12:39:15.276Z,100141.16
2018-11-02T12:41:42.922Z,100137.78
2018-11-02T12:44:10.490Z,100143.52
2018-11-02T12:46:38.045Z,100148.31
2018-11-02T12:49:05.864Z,100140.44
2018-11-02T12:51:33.214Z,100140.69
2018-11-02T12:54:00.954Z,100143.83
2018-11-02T12:56:28.519Z,100146.88
2018-11-02T12:58:56.151Z,100140.22
2018-11-02T13:01:23.737Z,100140.44
2018-11-02T13:03:51.311Z,100149.19
2018-11-02T13:06:18.899Z,100151.48
2018-11-02T13:08:46.544Z,100146.96
2018-11-02T13:11:14.148Z,100156.94
2018-11-02T13:13:41.731Z,100156.59
2018-11-02T13:16:09.379Z,100153.41
2018-11-02T13:18:36.929Z,100162.32
2018-11-02T13:21:04.500Z,100163.19
2018-11-02T13:23:32.093Z,100162.63
2018-11-02T13:25:59.871Z,100160.42
2018-11-02T13:28:27.440Z,100162.87
2018-11-02T13:30:55.178Z,100167.62
2018-11-02T13:33:22.601Z,100176.81
2018-11-02T13:35:50.290Z,100175.35
2018-11-02T13:38:17.910Z,100177.75
2018-11-02T13:40:45.511Z,100181.89
2018-11-02T13:43:13.743Z,100179.30
2018-11-02T13:45:41.273Z,100176.94
2018-11-02T13:48:08.870Z,100182.27
2018-11-02T13:50:36.562Z,100192.86
2018-11-02T13:53:04.232Z,100194.88
2018-11-02T13:55:31.825Z,100206.58
2018-11-02T13:57:59.484Z,100211.35
2018-11-02T14:00:27.463Z,100212.55
2018-11-02T14:02:55.027Z,100210.00
2018-11-02T14:05:27.083Z,100215.19
2018-11-02T14:07:54.673Z,100225.28
2018-11-02T14:10:22.251Z,100235.08
2018-11-02T14:12:49.844Z,100237.72
2018-11-02T14:15:17.419Z,100237.98
2018-11-02T14:17:45.010Z,100247.03
2018-11-02T14:20:12.785Z,100250.14
2018-11-02T14:22:40.319Z,100252.02
2018-11-02T14:25:18.464Z,100259.10
2018-11-02T14:27:47.290Z,100249.77
2018-11-02T14:30:14.877Z,100261.48
2018-11-02T14:32:42.511Z,100267.07
2018-11-02T14:35:10.062Z,100279.32
2018-11-02T14:37:38.746Z,100272.11
2018-11-02T14:40:06.344Z,100274.60
2018-11-02T14:42:34.030Z,100287.96
2018-11-02T14:45:01.607Z,100288.33
2018-11-02T14:47:29.196Z,100293.52
2018-11-02T14:49:57.044Z,100298.78
2018-11-02T14:52:24.748Z,100306.41
2018-11-02T14:54:52.291Z,100308.52
2018-11-02T14:57:19.906Z,100318.52
2018-11-02T14:59:47.465Z,100309.64
2018-11-02T15:02:15.246Z,100313.22
2018-11-02T15:04:42.771Z,100320.44
2018-11-02T15:07:10.455Z,100326.40
2018-11-02T15:09:38.028Z,100326.31
2018-11-02T15:12:05.635Z,100339.08
2018-11-02T15:14:33.235Z,100340.31
2018-11-02T15:17:00.763Z,100351.77
2018-11-02T15:19:28.344Z,100351.61
2018-11-02T15:21:55.935Z,100352.06
2018-11-02T15:24:23.538Z,100346.22
2018-11-02T15:26:51.083Z,100351.24
2018-11-02T15:29:18.796Z,100348.64
2018-11-02T15:31:46.357Z,100346.77
2018-11-02T15:34:13.956Z,100350.08
2018-11-02T15:36:41.554Z,100348.41
2018-11-02T15:39:09.161Z,100347.33
2018-11-02T15:41:36.712Z,100353.41
2018-11-02T15:44:04.381Z,100357.74
2018-11-02T15:46:31.921Z,100358.59
2018-11-02T15:48:59.618Z,100361.81
2018-11-02T15:51:27.193Z,100365.52
2018-11-02T15:53:54.754Z,100362.53
2018-11-02T15:56:22.349Z,100370.40
2018-11-02T15:58:49.875Z,100364.19
2018-11-02T16:01:19.485Z,100365.08
2018-11-02T16:03:47.048Z,100361.48
2018-11-02T16:06:14.698Z,100365.98
2018-11-02T16:08:45.539Z,100365.06
2018-11-02T16:11:16.427Z,100366.59
2018-11-02T16:13:44.086Z,100369.37
2018-11-02T16:16:13.795Z,100372.66
2018-11-02T16:18:42.417Z,100367.05
2018-11-02T16:21:10.039Z,100376.02
2018-11-02T16:23:37.654Z,100375.59
2018-11-02T16:26:05.210Z,100381.88
2018-11-02T16:28:32.819Z,100387.75
2018-11-02T16:31:04.142Z,100399.22
2018-11-02T16:33:31.820Z,100396.41
2018-11-02T16:35:59.377Z,100394.34
2018-11-02T16:38:26.990Z,100389.19
2018-11-02T16:40:54.634Z,100399.44
2018-11-02T16:43:22.334Z,100404.54
2018-11-02T16:45:50.041Z,100414.19
2018-11-02T16:48:17.602Z,100417.98
2018-11-02T16:50:45.161Z,100420.51
2018-11-02T16:53:13.918Z,100428.90
2018-11-02T16:55:41.515Z,100428.31
2018-11-02T16:58:10.303Z,100432.53
2018-11-02T17:00:37.817Z,100442.61
2018-11-02T17:03:05.434Z,100450.09
2018-11-02T17:05:33.089Z,100450.98
2018-11-02T17:08:00.642Z,100446.97
2018-11-02T17:10:28.238Z,100457.77
2018-11-02T17:12:59.403Z,100466.29
2018-11-02T17:15:27.009Z,100471.39
2018-11-02T17:17:54.547Z,100473.52
2018-11-02T17:20:22.129Z,100483.50
2018-11-02T17:22:50.768Z,100490.00
2018-11-02T17:25:18.438Z,100495.75
2018-11-02T17:27:46.045Z,100499.95
2018-11-02T17:30:15.599Z,100504.52
2018-11-02T17:32:43.137Z,100507.47
2018-11-02T17:35:10.728Z,100510.14
2018-11-02T17:37:38.286Z,100512.58
2018-11-02T17:40:06.037Z,100515.57
2018-11-02T17:42:33.635Z,100520.03
2018-11-02T17:45:01.178Z,100524.47
2018-11-02T17:47:28.748Z,100522.90
2018-11-02T17:49:56.310Z,100526.69
2018-11-02T17:52:23.927Z,100524.83
2018-11-02T17:54:51.512Z,100533.50
2018-11-02T17:57:19.076Z,100535.34
2018-11-02T17:59:46.649Z,100541.05
2018-11-02T18:02:20.231Z,100540.01
2018-11-02T18:04:47.825Z,100542.48
2018-11-02T18:07:15.375Z,100545.52
2018-11-02T18:09:42.954Z,100546.39
2018-11-02T18:12:15.691Z,100549.60
2018-11-02T18:14:43.233Z,100559.59
2018-11-02T18:17:10.874Z,100565.09
2018-11-02T18:19:38.623Z,100571.93
2018-11-02T18:22:06.218Z,100566.55
2018-11-02T18:24:33.897Z,100572.42
2018-11-02T18:27:01.312Z,100574.97
2018-11-02T18:29:28.893Z,100576.81
2018-11-02T18:31:56.557Z,100578.98
2018-11-02T18:34:26.148Z,100580.02
2018-11-02T18:36:55.104Z,100583.98
2018-11-02T18:39:22.645Z,100585.47
2018-11-02T18:41:50.432Z,100590.64
2018-11-02T18:44:19.929Z,100595.18
2018-11-02T18:46:48.626Z,100599.02
2018-11-02T18:49:16.266Z,100586.16
2018-11-02T18:51:43.965Z,100597.52
2018-11-02T18:54:17.658Z,100604.89
2018-11-02T18:56:45.601Z,100613.94
2018-11-02T18:59:14.392Z,100617.25
2018-11-02T19:01:42.118Z,100620.63
2018-11-02T19:04:09.805Z,100625.22
2018-11-02T19:06:37.343Z,100638.15
2018-11-02T19:09:05.033Z,100639.81
2018-11-02T19:11:34.650Z,100639.38
2018-11-02T19:14:02.437Z,100649.99
2018-11-02T19:16:30.010Z,100649.12
2018-11-02T19:18:57.605Z,100650.58
2018-11-02T19:21:27.302Z,100656.38
2018-11-02T19:23:54.846Z,100654.06
2018-11-02T19:26:22.435Z,100659.57
2018-11-02T19:28:55.765Z,100659.83
2018-11-02T19:31:23.335Z,100664.52
2018-11-02T19:33:50.884Z,100669.81
2018-11-02T19:36:18.443Z,100670.47
2018-11-02T19:38:46.267Z,100674.05
2018-11-02T19:41:13.791Z,100673.93
2018-11-02T19:43:41.377Z,100672.33
2018-11-02T19:46:08.938Z,100669.75
2018-11-02T19:48:36.514Z,100660.73
2018-11-02T19:51:04.063Z,100669.75
2018-11-02T19:53:31.720Z,100671.52
2018-11-02T19:55:59.263Z,100661.70
2018-11-02T19:58:26.806Z,100671.44
2018-11-02T20:00:54.595Z,100670.94
2018-11-02T20:03:26.024Z,100671.72
2018-11-02T20:05:53.597Z,100677.29
2018-11-02T20:08:21.303Z,100672.84
2018-11-02T20:10:48.977Z,100677.68
2018-11-02T20:13:16.562Z,100686.81
2018-11-02T20:15:44.228Z,100682.26
2018-11-02T20:18:11.865Z,100691.95
2018-11-02T20:20:39.785Z,100695.97
2018-11-02T20:23:07.324Z,100695.72
2018-11-02T20:25:34.913Z,100708.31
2018-11-02T20:28:04.945Z,100700.69
2018-11-02T20:30:32.698Z,100701.61
2018-11-02T20:33:00.244Z,100696.61
2018-11-02T20:35:27.831Z,100696.38
2018-11-02T20:37:55.392Z,100693.73
2018-11-02T20:40:23.118Z,100700.00
2018-11-02T20:42:51.771Z,100704.57
2018-11-02T20:45:25.317Z,100701.00
2018-11-02T20:47:52.872Z,100710.36
2018-11-02T20:50:20.535Z,100709.60
2018-11-02T20:52:51.044Z,100691.64
2018-11-02T20:55:18.654Z,100694.61
2018-11-02T20:57:46.263Z,100693.00
2018-11-02T21:00:14.803Z,100698.75
2018-11-02T21:02:42.462Z,100710.27
2018-11-02T21:05:10.035Z,100716.28
2018-11-02T21:07:37.871Z,100705.78
2018-11-02T21:10:05.692Z,100709.94
2018-11-02T21:12:34.765Z,100716.34
2018-11-02T21:15:02.764Z,100721.44
2018-11-02T21:17:31.328Z,100722.89
2018-11-02T21:20:00.947Z,100723.44
2018-11-02T21:22:28.638Z,100730.66
2018-11-02T21:24:57.404Z,100735.53
2018-11-02T21:27:25.271Z,100738.65
2018-11-02T21:29:52.870Z,100738.20
2018-11-02T21:32:21.605Z,100729.28
2018-11-02T21:34:49.247Z,100733.98
2018-11-02T21:37:16.827Z,100736.40
2018-11-02T21:39:44.368Z,100746.14
2018-11-02T21:42:11.976Z,100740.45
2018-11-02T21:44:39.990Z,100735.66
2018-11-02T21:47:07.903Z,100734.39
2018-11-02T21:49:35.692Z,100735.75
2018-11-02T21:52:03.464Z,100732.67
2018-11-02T21:54:32.858Z,100735.81
2018-11-02T21:57:00.556Z,100736.06
2018-11-02T21:59:28.595Z,100730.05
2018-11-02T22:01:56.437Z,100730.94
2018-11-02T22:04:25.035Z,100736.11
2018-11-02T22:06:52.870Z,100732.61
2018-11-02T22:09:20.564Z,100732.80
2018-11-02T22:11:48.371Z,100733.02
2018-11-02T22:14:16.076Z,100741.47
2018-11-02T22:16:43.934Z,100744.12
2018-11-02T22:19:11.671Z,100740.97
2018-11-02T22:21:39.404Z,100747.32
2018-11-02T22:24:07.160Z,100753.16
2018-11-02T22:26:34.904Z,100754.11
2018-11-02T22:29:08.356Z,100763.05
2018-11-02T22:31:37.247Z,100751.92
2018-11-02T22:34:05.143Z,100746.12
2018-11-02T22:36:32.777Z,100750.56
2018-11-02T22:39:00.392Z,100751.75
2018-11-02T22:41:28.020Z,100746.77
2018-11-02T22:43:55.607Z,100755.06
2018-11-02T22:46:26.553Z,100760.69
2018-11-02T22:48:55.295Z,100762.75
2018-11-02T22:51:24.715Z,100755.89
2018-11-02T22:53:52.324Z,100768.21
2018-11-02T22:56:21.988Z,100768.02
2018-11-02T22:58:49.784Z,100765.72
2018-11-02T23:01:18.248Z,100757.49
2018-11-02T23:03:45.914Z,100762.53
2018-11-02T23:06:13.588Z,100759.00
2018-11-02T23:08:41.202Z,100765.02
2018-11-02T23:11:08.834Z,100771.78
2018-11-02T23:13:36.684Z,100766.95
2018-11-02T23:16:04.229Z,100764.45
2018-11-02T23:18:31.892Z,100767.53
2018-11-02T23:21:00.767Z,100772.70
2018-11-02T23:23:28.574Z,100769.20
2018-11-02T23:25:58.431Z,100778.82
2018-11-02T23:28:26.271Z,100777.13
2018-11-02T23:30:53.868Z,100776.22
2018-11-02T23:33:21.423Z,100773.17
2018-11-02T23:35:49.090Z,100767.75
2018-11-02T23:38:20.193Z,100773.80
2018-11-02T23:40:47.948Z,100769.88
2018-11-02T23:43:15.530Z,100771.66
2018-11-02T23:45:43.106Z,100770.62
2018-11-02T23:48:10.679Z,100768.55
2018-11-02T23:50:38.415Z,100767.38
2018-11-02T23:53:06.081Z,100768.02
2018-11-02T23:55:33.852Z,100770.38
2018-11-02T23:58:01.420Z,100771.23
